createdAt,value
2018-06-04T00:02:07.181Z,21.93
2018-06-04T00:04:35.055Z,18.50
2018-06-04T00:07:02.871Z,20.47
2018-06-04T00:09:30.807Z,22.50
2018-06-04T00:11:58.738Z,22.33
2018-06-04T00:14:26.560Z,30.83
2018-06-04T00:16:54.493Z,28.87
2018-06-04T00:19:22.574Z,27.10
2018-06-04T00:21:50.420Z,26.23
2018-06-04T00:24:18.271Z,26.23
2018-06-04T00:26:46.079Z,21.37
2018-06-04T00:29:13.921Z,23.63
2018-06-04T00:31:41.987Z,23.03
2018-06-04T00:34:09.796Z,22.30
2018-06-04T00:36:37.603Z,22.57
2018-06-04T00:39:07.696Z,21.70
2018-06-04T00:41:35.763Z,20.83
2018-06-04T00:44:03.589Z,22.27
2018-06-04T00:46:31.597Z,21.70
2018-06-04T00:48:59.481Z,20.13
2018-06-04T00:51:27.327Z,20.87
2018-06-04T00:53:55.224Z,20.47
2018-06-04T00:56:24.047Z,21.70
2018-06-04T00:58:51.856Z,21.37
2018-06-04T01:01:19.756Z,20.03
2018-06-04T01:03:47.678Z,20.03
2018-06-04T01:06:15.643Z,19.97
2018-06-04T01:08:43.521Z,19.47
2018-06-04T01:11:11.376Z,20.20
2018-06-04T01:13:40.099Z,19.10
2018-06-04T01:16:08.125Z,16.80
2018-06-04T01:18:35.934Z,18.00
2018-06-04T01:21:03.768Z,19.60
2018-06-04T01:23:31.621Z,19.03
2018-06-04T01:25:59.442Z,23.67
2018-06-04T01:28:27.391Z,20.43
2018-06-04T01:30:55.407Z,19.90
2018-06-04T01:33:23.245Z,20.23
2018-06-04T01:35:51.057Z,19.13
2018-06-04T01:38:19.122Z,18.97
2018-06-04T01:40:47.089Z,22.20
2018-06-04T01:43:14.885Z,22.80
2018-06-04T01:45:42.785Z,27.03
2018-06-04T01:48:10.607Z,24.57
2018-06-04T01:50:38.559Z,22.33
2018-06-04T01:53:06.404Z,24.30
2018-06-04T01:55:34.231Z,22.43
2018-06-04T01:58:02.042Z,25.10
2018-06-04T02:00:30.142Z,21.60
2018-06-04T02:02:58.579Z,25.67
2018-06-04T02:05:26.527Z,26.30
2018-06-04T02:07:54.379Z,24.13
2018-06-04T02:10:22.180Z,26.33
2018-06-04T02:12:49.978Z,24.97
2018-06-04T02:15:17.931Z,22.63
2018-06-04T02:17:45.731Z,22.97
2018-06-04T02:20:13.793Z,21.20
2018-06-04T02:22:41.988Z,18.33
2018-06-04T02:25:09.809Z,19.20
2018-06-04T02:27:37.608Z,16.73
2018-06-04T02:30:05.493Z,16.63
2018-06-04T02:32:34.174Z,15.40
2018-06-04T02:35:02.065Z,16.67
2018-06-04T02:37:29.938Z,17.33
2018-06-04T02:39:57.762Z,19.07
2018-06-04T02:42:25.712Z,17.73
2018-06-04T02:44:54.035Z,21.63
2018-06-04T02:47:24.840Z,21.80
2018-06-04T02:49:53.562Z,22.80
2018-06-04T02:52:21.431Z,21.90
2018-06-04T02:54:49.297Z,20.73
2018-06-04T02:57:17.426Z,21.70
2018-06-04T02:59:45.342Z,21.80
2018-06-04T03:02:13.365Z,20.30
2018-06-04T03:04:41.384Z,21.53
2018-06-04T03:07:09.749Z,20.30
2018-06-04T03:09:37.621Z,20.30
2018-06-04T03:12:05.510Z,20.83
2018-06-04T03:14:33.411Z,22.37
2018-06-04T03:17:01.380Z,22.43
2018-06-04T03:19:29.427Z,20.83
2018-06-04T03:21:57.670Z,21.37
2018-06-04T03:24:25.746Z,20.60
2018-06-04T03:26:53.931Z,19.77
2018-06-04T03:29:21.935Z,19.83
2018-06-04T03:31:49.762Z,18.87
2018-06-04T03:34:17.605Z,18.40
2018-06-04T03:36:45.810Z,17.63
2018-06-04T03:39:13.669Z,20.03
2018-06-04T03:41:41.489Z,19.57
2018-06-04T03:44:09.345Z,18.20
2018-06-04T03:46:37.147Z,17.30
2018-06-04T03:49:05.041Z,19.23
2018-06-04T03:51:33.367Z,18.33
2018-06-04T03:54:01.389Z,29.20
2018-06-04T03:56:29.220Z,22.23
2018-06-04T03:58:57.051Z,18.73
2018-06-04T04:01:24.860Z,22.33
2018-06-04T04:03:52.643Z,38.03
2018-06-04T04:06:20.500Z,21.20
2018-06-04T04:08:48.448Z,19.37
2018-06-04T04:11:16.252Z,20.07
2018-06-04T04:13:44.151Z,18.77
2018-06-04T04:16:11.960Z,17.33
2018-06-04T04:18:39.863Z,17.70
2018-06-04T04:21:07.729Z,18.57
2018-06-04T04:23:35.580Z,18.13
2018-06-04T04:26:03.517Z,19.60
2018-06-04T04:28:31.371Z,18.90
2018-06-04T04:30:59.364Z,18.87
2018-06-04T04:33:27.336Z,18.20
2018-06-04T04:35:55.384Z,19.93
2018-06-04T04:38:23.220Z,17.93
2018-06-04T04:40:50.999Z,18.67
2018-06-04T04:43:21.456Z,23.03
2018-06-04T04:45:49.420Z,62.70
2018-06-04T04:48:17.383Z,22.13
2018-06-04T04:50:45.234Z,22.40
2018-06-04T04:53:13.036Z,23.07
2018-06-04T04:55:40.854Z,23.40
2018-06-04T04:58:08.781Z,22.23
2018-06-04T05:00:36.640Z,22.97
2018-06-04T05:03:04.487Z,25.50
2018-06-04T05:05:32.476Z,27.27
2018-06-04T05:08:00.306Z,27.60
2018-06-04T05:10:28.115Z,29.30
2018-06-04T05:12:56.085Z,28.57
2018-06-04T05:15:23.903Z,32.47
2018-06-04T05:17:51.768Z,23.27
2018-06-04T05:20:19.784Z,21.83
2018-06-04T05:22:47.606Z,21.07
2018-06-04T05:25:15.404Z,22.60
2018-06-04T05:27:43.398Z,21.90
2018-06-04T05:30:11.299Z,23.07
2018-06-04T05:32:39.104Z,20.80
2018-06-04T05:35:06.935Z,20.13
2018-06-04T05:37:34.751Z,21.67
2018-06-04T05:40:02.583Z,18.13
2018-06-04T05:42:30.519Z,18.27
2018-06-04T05:44:58.350Z,18.30
2018-06-04T05:47:26.216Z,19.03
2018-06-04T05:49:54.136Z,19.10
2018-06-04T05:52:21.915Z,18.87
2018-06-04T05:54:49.713Z,18.40
2018-06-04T05:57:17.572Z,17.70
2018-06-04T05:59:45.604Z,18.10
2018-06-04T06:02:13.438Z,18.97
2018-06-04T06:04:41.466Z,18.37
2018-06-04T06:07:09.358Z,18.03
2018-06-04T06:09:37.158Z,18.67
2018-06-04T06:12:04.998Z,17.33
2018-06-04T06:14:32.815Z,18.43
2018-06-04T06:17:00.644Z,17.57
2018-06-04T06:19:28.487Z,14.97
2018-06-04T06:21:56.650Z,16.13
2018-06-04T06:24:24.616Z,15.90
2018-06-04T06:26:52.545Z,17.27
2018-06-04T06:29:20.359Z,16.70
2018-06-04T06:31:48.163Z,16.50
2018-06-04T06:34:16.028Z,15.53
2018-06-04T06:36:43.848Z,17.37
2018-06-04T06:39:12.101Z,16.53
2018-06-04T06:41:39.927Z,16.97
2018-06-04T06:44:07.748Z,18.50
2018-06-04T06:46:35.539Z,17.57
2018-06-04T06:49:03.562Z,17.50
2018-06-04T06:51:31.395Z,17.50
2018-06-04T06:53:59.341Z,18.13
2018-06-04T06:56:27.343Z,17.00
2018-06-04T06:58:55.148Z,17.00
2018-06-04T07:01:23.140Z,15.37
2018-06-04T07:03:51.004Z,15.63
2018-06-04T07:06:23.980Z,15.93
2018-06-04T07:08:51.773Z,16.57
2018-06-04T07:11:19.679Z,15.97
2018-06-04T07:13:47.511Z,14.23
2018-06-04T07:16:15.286Z,14.97
2018-06-04T07:18:43.179Z,18.00
2018-06-04T07:21:11.104Z,14.00
2018-06-04T07:23:39.007Z,13.67
2018-06-04T07:26:06.856Z,12.40
2018-06-04T07:28:35.042Z,13.17
2018-06-04T07:31:02.833Z,12.43
2018-06-04T07:33:36.880Z,12.67
2018-06-04T07:43:08.470Z,14.77
2018-06-04T07:45:36.279Z,16.40
2018-06-04T07:48:04.221Z,13.17
2018-06-04T07:50:32.248Z,11.70
2018-06-04T07:53:00.110Z,12.70
2018-06-04T07:55:27.903Z,11.23
2018-06-04T07:57:55.766Z,10.30
2018-06-04T08:00:23.583Z,10.87
2018-06-04T08:02:51.541Z,10.33
2018-06-04T08:05:19.541Z,11.37
2018-06-04T08:07:47.357Z,11.70
2018-06-04T08:10:15.206Z,10.67
2018-06-04T08:12:43.114Z,11.30
2018-06-04T08:15:10.944Z,10.77
2018-06-04T08:17:38.758Z,11.17
2018-06-04T08:20:06.800Z,10.00
2018-06-04T08:22:34.635Z,10.77
2018-06-04T08:25:03.063Z,10.13
2018-06-04T08:27:30.928Z,11.03
2018-06-04T08:29:58.760Z,9.03
2018-06-04T08:32:26.559Z,8.80
2018-06-04T08:34:54.484Z,9.33
2018-06-04T08:37:22.317Z,9.17
2018-06-04T08:39:50.286Z,9.10
2018-06-04T08:42:18.137Z,8.70
2018-06-04T08:44:45.957Z,9.00
2018-06-04T08:47:13.809Z,9.63
2018-06-04T08:49:41.662Z,8.13
2018-06-04T08:52:09.625Z,8.10
2018-06-04T08:54:37.415Z,7.37
2018-06-04T08:57:08.504Z,7.87
2018-06-04T08:59:36.439Z,7.07
2018-06-04T09:02:04.368Z,6.47
2018-06-04T09:04:32.253Z,7.03
2018-06-04T09:07:00.077Z,25.33
2018-06-04T09:09:28.078Z,92.80
2018-06-04T09:11:56.045Z,49.97
2018-06-04T09:14:23.907Z,20.20
2018-06-04T09:16:51.711Z,32.47
2018-06-04T09:19:19.604Z,25.77
2018-06-04T09:21:47.415Z,40.70
2018-06-04T09:24:15.243Z,8.23
2018-06-04T09:26:44.932Z,28.40
2018-06-04T09:29:12.872Z,12.10
2018-06-04T09:31:40.679Z,22.57
2018-06-04T09:34:08.511Z,11.57
2018-06-04T09:36:36.386Z,8.63
2018-06-04T09:39:06.754Z,8.77
2018-06-04T09:41:34.714Z,7.00
2018-06-04T09:44:02.565Z,9.00
2018-06-04T09:46:30.391Z,16.97
2018-06-04T09:48:58.235Z,10.97
2018-06-04T09:51:26.030Z,14.30
2018-06-04T09:53:53.914Z,15.27
2018-06-04T09:56:21.722Z,12.20
2018-06-04T09:58:49.539Z,21.13
2018-06-04T10:01:17.350Z,9.27
2018-06-04T10:03:45.249Z,8.40
2018-06-04T10:06:13.048Z,8.37
2018-06-04T10:08:41.413Z,8.67
2018-06-04T10:11:09.413Z,6.50
2018-06-04T10:13:37.215Z,7.33
2018-06-04T10:16:05.074Z,7.40
2018-06-04T10:18:32.932Z,8.37
2018-06-04T10:21:00.724Z,7.40
2018-06-04T10:23:28.557Z,8.97
2018-06-04T10:25:56.608Z,9.33
2018-06-04T10:28:25.560Z,8.40
2018-06-04T10:30:53.532Z,7.10
2018-06-04T10:33:21.516Z,7.60
2018-06-04T10:35:49.315Z,7.97
2018-06-04T10:38:17.137Z,7.80
2018-06-04T10:40:45.199Z,11.10
2018-06-04T10:43:13.047Z,9.03
2018-06-04T10:45:40.874Z,5.73
2018-06-04T10:48:08.806Z,7.27
2018-06-04T10:50:36.671Z,5.83
2018-06-04T10:53:04.516Z,7.20
2018-06-04T10:55:32.415Z,6.00
2018-06-04T10:58:00.315Z,6.80
2018-06-04T11:00:28.136Z,7.10
2018-06-04T11:02:55.981Z,6.83
2018-06-04T11:05:23.811Z,5.60
2018-06-04T11:07:51.628Z,5.90
2018-06-04T11:10:19.716Z,5.20
2018-06-04T11:12:47.534Z,5.20
2018-06-04T11:15:15.372Z,4.73
2018-06-04T11:17:43.247Z,4.20
2018-06-04T11:20:11.059Z,4.13
2018-06-04T11:22:38.899Z,4.20
2018-06-04T11:25:06.801Z,3.80
2018-06-04T11:27:34.623Z,3.60
2018-06-04T11:30:02.634Z,4.00
2018-06-04T11:32:30.581Z,19.60
2018-06-04T11:34:58.530Z,47.50
2018-06-04T11:37:26.353Z,5.37
2018-06-04T11:39:54.236Z,10.27
2018-06-04T11:42:22.201Z,4.43
2018-06-04T11:44:50.015Z,7.73
2018-06-04T11:47:17.885Z,9.40
2018-06-04T11:49:45.697Z,4.67
2018-06-04T11:52:13.527Z,4.53
2018-06-04T11:54:41.441Z,7.00
2018-06-04T11:57:09.264Z,5.30
2018-06-04T11:59:37.092Z,5.57
2018-06-04T12:02:04.944Z,5.30
2018-06-04T12:04:32.765Z,4.83
2018-06-04T12:07:00.699Z,5.43
2018-06-04T12:09:28.676Z,5.00
2018-06-04T12:11:56.489Z,4.80
2018-06-04T12:14:24.291Z,4.70
2018-06-04T12:16:52.219Z,4.17
2018-06-04T12:19:20.073Z,4.40
2018-06-04T12:21:47.991Z,4.40
2018-06-04T12:24:15.839Z,5.40
2018-06-04T12:26:43.634Z,5.40
2018-06-04T12:29:11.443Z,4.80
2018-06-04T12:31:39.421Z,4.90
2018-06-04T12:34:07.230Z,5.57
2018-06-04T12:36:35.173Z,5.23
2018-06-04T12:39:03.780Z,15.53
2018-06-04T12:41:31.600Z,5.13
2018-06-04T12:43:59.442Z,5.03
2018-06-04T12:46:27.287Z,4.43
2018-06-04T12:48:55.087Z,5.37
2018-06-04T12:51:22.907Z,5.37
2018-06-04T12:53:50.768Z,5.93
2018-06-04T12:56:18.589Z,5.53
2018-06-04T12:58:46.391Z,4.50
2018-06-04T13:01:14.282Z,4.40
2018-06-04T13:03:42.077Z,4.70
2018-06-04T13:06:09.923Z,4.60
2018-06-04T13:08:37.796Z,4.70
2018-06-04T13:11:05.645Z,4.23
2018-06-04T13:13:33.476Z,4.80
2018-06-04T13:16:01.353Z,5.13
2018-06-04T13:18:29.166Z,4.90
2018-06-04T13:20:56.983Z,4.90
2018-06-04T13:23:24.882Z,4.90
2018-06-04T13:25:52.696Z,5.13
2018-06-04T13:28:20.509Z,4.80
2018-06-04T13:30:48.451Z,5.03
2018-06-04T13:33:16.844Z,5.03
2018-06-04T13:35:44.649Z,4.37
2018-06-04T13:38:12.488Z,4.63
2018-06-04T13:40:40.323Z,4.60
2018-06-04T13:43:08.271Z,4.67
2018-06-04T13:45:36.288Z,5.17
2018-06-04T13:48:04.129Z,4.97
2018-06-04T13:50:31.963Z,4.60
2018-06-04T13:52:59.868Z,4.20
2018-06-04T13:55:27.648Z,4.80
2018-06-04T13:57:55.470Z,5.10
2018-06-04T14:00:23.333Z,5.10
2018-06-04T14:02:51.166Z,4.47
2018-06-04T14:05:18.968Z,4.23
2018-06-04T14:07:46.890Z,4.63
2018-06-04T14:10:14.706Z,4.70
2018-06-04T14:12:42.663Z,4.67
2018-06-04T14:15:10.526Z,4.93
2018-06-04T14:17:38.348Z,4.90
2018-06-04T14:20:06.188Z,4.77
2018-06-04T14:22:34.036Z,4.90
2018-06-04T14:25:01.869Z,4.87
2018-06-04T14:27:29.697Z,5.13
2018-06-04T14:29:57.610Z,5.13
2018-06-04T14:32:25.407Z,4.90
2018-06-04T14:34:53.481Z,4.80
2018-06-04T14:37:21.603Z,4.73
2018-06-04T14:39:49.400Z,5.47
2018-06-04T14:42:17.332Z,4.43
2018-06-04T14:44:45.222Z,4.50
2018-06-04T14:47:13.160Z,20.53
2018-06-04T14:49:40.994Z,14.47
2018-06-04T14:52:09.038Z,5.10
2018-06-04T14:54:36.847Z,5.67
2018-06-04T14:57:04.915Z,5.17
2018-06-04T14:59:32.803Z,5.20
2018-06-04T15:02:00.648Z,5.43
2018-06-04T15:04:28.443Z,5.63
2018-06-04T15:06:56.315Z,5.23
2018-06-04T15:09:24.132Z,5.63
2018-06-04T15:11:52.104Z,5.03
2018-06-04T15:14:20.288Z,15.80
2018-06-04T15:16:48.102Z,6.77
2018-06-04T15:19:15.911Z,10.27
2018-06-04T15:21:43.779Z,5.47
2018-06-04T15:24:11.589Z,4.90
2018-06-04T15:26:39.414Z,6.10
2018-06-04T15:29:07.265Z,6.00
2018-06-04T15:31:35.164Z,6.47
2018-06-04T15:34:02.998Z,6.60
2018-06-04T15:39:24.467Z,6.60
2018-06-04T15:41:52.443Z,6.90
2018-06-04T15:44:20.254Z,6.67
2018-06-04T15:46:48.159Z,5.83
2018-06-04T15:49:15.978Z,5.20
2018-06-04T15:51:43.801Z,5.90
2018-06-04T15:54:11.705Z,5.33
2018-06-04T15:56:39.527Z,7.57
2018-06-04T15:59:07.346Z,8.07
2018-06-04T16:01:35.247Z,5.40
2018-06-04T16:04:03.081Z,5.23
2018-06-04T16:06:30.940Z,5.93
2018-06-04T16:08:58.828Z,5.83
2018-06-04T16:11:26.777Z,4.87
2018-06-04T16:13:54.592Z,11.13
2018-06-04T16:16:22.446Z,8.50
2018-06-04T16:18:50.268Z,6.97
2018-06-04T16:21:18.088Z,9.37
2018-06-04T16:23:46.299Z,11.30
2018-06-04T16:26:14.134Z,10.50
2018-06-04T16:28:41.952Z,9.00
2018-06-04T16:31:09.819Z,6.20
2018-06-04T16:33:37.752Z,22.73
2018-06-04T16:36:05.665Z,7.20
2018-06-04T16:38:33.815Z,11.17
2018-06-04T16:41:01.636Z,9.20
2018-06-04T16:43:29.502Z,9.13
2018-06-04T16:45:57.435Z,7.03
2018-06-04T16:48:25.264Z,6.70
2018-06-04T16:50:53.086Z,5.90
2018-06-04T16:53:20.977Z,5.97
2018-06-04T16:55:48.753Z,7.90
2018-06-04T16:58:16.572Z,7.53
2018-06-04T17:00:44.471Z,18.43
2018-06-04T17:03:12.293Z,7.20
2018-06-04T17:05:40.103Z,6.50
2018-06-04T17:08:08.062Z,6.07
2018-06-04T17:10:35.874Z,6.27
2018-06-04T17:13:03.847Z,6.90
2018-06-04T17:15:31.706Z,6.53
2018-06-04T17:17:59.523Z,6.23
2018-06-04T17:20:27.392Z,7.03
2018-06-04T17:22:55.313Z,7.17
2018-06-04T17:25:23.174Z,9.37
2018-06-04T17:27:51.009Z,13.60
2018-06-04T17:30:19.036Z,7.80
2018-06-04T17:32:46.844Z,7.80
2018-06-04T17:35:29.652Z,7.47
2018-06-04T17:37:57.501Z,7.37
2018-06-04T17:40:25.500Z,8.87
2018-06-04T17:42:53.355Z,7.00
2018-06-04T17:45:21.175Z,7.50
2018-06-04T17:47:54.072Z,9.37
2018-06-04T17:50:22.255Z,7.57
2018-06-04T17:52:50.423Z,7.20
2018-06-04T17:55:18.628Z,6.33
2018-06-04T17:57:46.818Z,6.83
2018-06-04T18:00:15.258Z,6.90
2018-06-04T18:02:43.666Z,6.83
2018-06-04T18:05:14.080Z,7.00
2018-06-04T18:07:45.055Z,6.00
2018-06-04T18:10:13.423Z,7.27
2018-06-04T18:12:46.870Z,6.57
2018-06-04T18:15:15.346Z,5.73
2018-06-04T18:17:45.654Z,6.70
2018-06-04T18:20:13.567Z,6.63
2018-06-04T18:22:41.699Z,6.90
2018-06-04T18:25:09.817Z,7.23
2018-06-04T18:27:37.653Z,8.17
2018-06-04T18:30:05.544Z,9.50
2018-06-04T18:32:34.723Z,11.17
2018-06-04T18:35:03.166Z,21.53
2018-06-04T18:37:31.162Z,21.53
2018-06-04T18:39:59.195Z,34.90
2018-06-04T18:42:28.267Z,22.37
2018-06-04T18:44:57.128Z,8.00
2018-06-04T18:47:25.137Z,9.70
2018-06-04T18:49:54.278Z,8.70
2018-06-04T18:52:22.260Z,8.00
2018-06-04T18:54:50.696Z,7.60
2018-06-04T18:57:18.874Z,10.30
2018-06-04T18:59:47.044Z,10.67
2018-06-04T19:02:15.037Z,10.33
2018-06-04T19:04:43.038Z,9.43
2018-06-04T19:07:10.908Z,8.20
2018-06-04T19:09:38.797Z,8.70
2018-06-04T19:12:06.767Z,7.83
2018-06-04T19:14:34.796Z,9.13
2018-06-04T19:17:02.754Z,9.30
2018-06-04T19:19:30.828Z,10.17
2018-06-04T19:21:58.857Z,9.30
2018-06-04T19:24:26.983Z,9.00
2018-06-04T19:26:55.568Z,8.80
2018-06-04T19:29:23.553Z,8.63
2018-06-04T19:31:52.173Z,10.03
2018-06-04T19:34:20.235Z,9.83
2018-06-04T19:36:48.295Z,8.27
2018-06-04T19:39:16.399Z,7.90
2018-06-04T19:41:44.471Z,7.67
2018-06-04T19:44:12.543Z,8.13
2018-06-04T19:46:40.382Z,7.37
2018-06-04T19:49:08.250Z,9.00
2018-06-04T19:51:36.144Z,8.43
2018-06-04T19:54:04.218Z,7.67
2018-06-04T19:56:32.298Z,7.97
2018-06-04T19:59:00.139Z,7.83
2018-06-04T20:01:28.136Z,8.10
2018-06-04T20:03:56.179Z,11.47
2018-06-04T20:06:24.018Z,10.60
2018-06-04T20:08:51.888Z,41.43
2018-06-04T20:11:19.768Z,20.20
2018-06-04T20:13:47.595Z,17.67
2018-06-04T20:16:15.421Z,11.13
2018-06-04T20:18:43.300Z,10.23
2018-06-04T20:21:11.250Z,10.43
2018-06-04T20:23:39.059Z,11.70
2018-06-04T20:26:07.020Z,9.97
2018-06-04T20:28:34.845Z,8.73
2018-06-04T20:31:02.757Z,9.30
2018-06-04T20:33:30.687Z,11.87
2018-06-04T20:35:58.543Z,10.43
2018-06-04T20:38:26.520Z,10.40
2018-06-04T20:40:54.513Z,9.37
2018-06-04T20:43:22.360Z,7.90
2018-06-04T20:45:50.709Z,8.17
2018-06-04T20:48:18.621Z,9.00
2018-06-04T20:50:46.435Z,8.90
2018-06-04T20:53:14.241Z,9.43
2018-06-04T20:55:42.089Z,9.23
2018-06-04T20:58:10.029Z,8.43
2018-06-04T21:00:37.824Z,8.47
2018-06-04T21:03:05.816Z,8.40
2018-06-04T21:05:33.763Z,11.00
2018-06-04T21:08:01.603Z,10.20
2018-06-04T21:10:29.553Z,9.70
2018-06-04T21:12:57.382Z,10.10
2018-06-04T21:15:25.346Z,11.90
2018-06-04T21:17:53.194Z,14.13
2018-06-04T21:20:20.994Z,14.30
2018-06-04T21:22:48.848Z,11.93
2018-06-04T21:25:16.707Z,10.20
2018-06-04T21:27:44.640Z,11.43
2018-06-04T21:30:12.486Z,9.50
2018-06-04T21:32:40.390Z,10.90
2018-06-04T21:35:08.196Z,9.40
2018-06-04T21:37:35.994Z,10.53
2018-06-04T21:40:04.103Z,10.10
2018-06-04T21:42:31.920Z,10.60
2018-06-04T21:44:59.746Z,13.13
2018-06-04T21:47:27.765Z,13.67
2018-06-04T21:49:55.596Z,12.83
2018-06-04T21:52:23.428Z,14.23
2018-06-04T21:54:51.364Z,14.70
2018-06-04T21:57:19.178Z,11.13
2018-06-04T21:59:46.991Z,11.63
2018-06-04T22:02:14.844Z,11.87
2018-06-04T22:04:42.776Z,11.77
2018-06-04T22:07:10.613Z,11.60
2018-06-04T22:09:38.493Z,11.40
2018-06-04T22:12:06.333Z,11.23
2018-06-04T22:14:34.281Z,13.57
2018-06-04T22:17:02.572Z,14.77
2018-06-04T22:19:30.386Z,16.00
2018-06-04T22:21:58.193Z,13.03
2018-06-04T22:24:26.175Z,14.50
2018-06-04T22:26:53.971Z,14.23
2018-06-04T22:29:21.767Z,29.00
2018-06-04T22:31:49.597Z,19.93
2018-06-04T22:34:17.412Z,14.47
2018-06-04T22:36:45.207Z,14.97
2018-06-04T22:39:14.890Z,16.43
2018-06-04T22:41:42.705Z,15.30
2018-06-04T22:44:10.541Z,22.33
2018-06-04T22:46:38.405Z,27.93
2018-06-04T22:49:08.919Z,22.37
2018-06-04T22:51:36.884Z,22.43
2018-06-04T22:54:04.766Z,17.73
2018-06-04T22:56:32.574Z,13.43
2018-06-04T22:59:00.509Z,13.63
2018-06-04T23:01:28.859Z,14.57
2018-06-04T23:03:56.796Z,13.10
2018-06-04T23:06:24.604Z,15.57
2018-06-04T23:08:52.429Z,14.47
2018-06-04T23:11:20.230Z,15.37
2018-06-04T23:13:48.027Z,16.73
2018-06-04T23:16:15.858Z,15.60
2018-06-04T23:18:43.660Z,15.13
2018-06-04T23:21:11.461Z,15.23
2018-06-04T23:23:39.363Z,17.53
2018-06-04T23:26:07.181Z,17.43
2018-06-04T23:28:34.988Z,18.37
2018-06-04T23:31:02.827Z,17.30
2018-06-04T23:33:30.960Z,17.80
2018-06-04T23:35:58.775Z,16.57
2018-06-04T23:38:26.616Z,17.30
2018-06-04T23:40:54.439Z,17.90
2018-06-04T23:43:22.244Z,16.10
2018-06-04T23:45:50.338Z,17.83
2018-06-04T23:48:18.154Z,14.37
2018-06-04T23:50:46.084Z,15.03
2018-06-04T23:53:13.941Z,14.10
2018-06-04T23:55:41.742Z,16.80
2018-06-04T23:58:09.566Z,18.07
